sensor_id;sensor_type;location;lat;lon;timestamp;P1;durP1;ratioP1;P2;durP2;ratioP2
1847;SDS011;924;52.448;13.356;2023-05-10T00:01:23;10.43;;;6.87;;
1847;SDS011;924;52.448;13.356;2023-05-10T00:03:48;7.00;;;6.40;;
1847;SDS011;924;52.448;13.356;2023-05-10T00:06:13;6.73;;;6.03;;
1847;SDS011;924;52.448;13.356;2023-05-10T00:08:38;7.00;;;6.17;;
1847;SDS011;924;52.448;13.356;2023-05-10T00:11:04;7.87;;;5.73;;
1847;SDS011;924;52.448;13.356;2023-05-10T00:13:29;6.63;;;6.03;;
1847;SDS011;924;52.448;13.356;2023-05-10T00:15:54;8.30;;;7.17;;
1847;SDS011;924;52.448;13.356;2023-05-10T00:18:19;6.03;;;5.53;;
1847;SDS011;924;52.448;13.356;2023-05-10T00:20:45;8.60;;;6.30;;
1847;SDS011;924;52.448;13.356;2023-05-10T00:23:11;6.77;;;6.13;;
1847;SDS011;924;52.448;13.356;2023-05-10T00:25:36;7.50;;;6.77;;
1847;SDS011;924;52.448;13.356;2023-05-10T00:28:01;8.07;;;7.30;;
1847;SDS011;924;52.448;13.356;2023-05-10T00:30:26;7.40;;;6.60;;
1847;SDS011;924;52.448;13.356;2023-05-10T00:32:52;8.07;;;7.10;;
1847;SDS011;924;52.448;13.356;2023-05-10T00:35:17;6.87;;;5.60;;
1847;SDS011;924;52.448;13.356;2023-05-10T00:37:42;6.73;;;6.10;;
1847;SDS011;924;52.448;13.356;2023-05-10T00:40:07;7.13;;;6.53;;
1847;SDS011;924;52.448;13.356;2023-05-10T00:42:33;6.97;;;5.93;;
1847;SDS011;924;52.448;13.356;2023-05-10T00:44:58;8.20;;;6.70;;
1847;SDS011;924;52.448;13.356;2023-05-10T00:47:23;10.93;;;6.30;;
1847;SDS011;924;52.448;13.356;2023-05-10T00:49:49;6.67;;;6.07;;
1847;SDS011;924;52.448;13.356;2023-05-10T00:52:14;7.23;;;6.10;;
1847;SDS011;924;52.448;13.356;2023-05-10T00:54:40;6.57;;;5.87;;
1847;SDS011;924;52.448;13.356;2023-05-10T00:57:05;7.30;;;6.60;;
1847;SDS011;924;52.448;13.356;2023-05-10T00:59:30;7.03;;;6.10;;
1847;SDS011;924;52.448;13.356;2023-05-10T01:01:56;6.87;;;6.17;;
1847;SDS011;924;52.448;13.356;2023-05-10T01:04:22;6.53;;;6.03;;
1847;SDS011;924;52.448;13.356;2023-05-10T01:06:50;6.57;;;6.00;;
1847;SDS011;924;52.448;13.356;2023-05-10T01:09:15;7.23;;;6.50;;
1847;SDS011;924;52.448;13.356;2023-05-10T01:11:41;6.77;;;6.27;;
1847;SDS011;924;52.448;13.356;2023-05-10T01:14:06;8.63;;;7.27;;
1847;SDS011;924;52.448;13.356;2023-05-10T01:16:32;7.73;;;7.03;;
1847;SDS011;924;52.448;13.356;2023-05-10T01:18:58;7.30;;;6.60;;
1847;SDS011;924;52.448;13.356;2023-05-10T01:21:33;7.77;;;7.07;;
1847;SDS011;924;52.448;13.356;2023-05-10T01:24:09;7.30;;;6.70;;
1847;SDS011;924;52.448;13.356;2023-05-10T01:34:31;7.30;;;6.30;;
1847;SDS011;924;52.448;13.356;2023-05-10T01:37:02;6.57;;;6.07;;
1847;SDS011;924;52.448;13.356;2023-05-10T01:39:36;9.20;;;6.90;;
1847;SDS011;924;52.448;13.356;2023-05-10T01:44:31;7.90;;;7.20;;
1847;SDS011;924;52.448;13.356;2023-05-10T01:47:10;7.77;;;6.97;;
1847;SDS011;924;52.448;13.356;2023-05-10T01:49:43;7.97;;;6.97;;
1847;SDS011;924;52.448;13.356;2023-05-10T01:52:12;8.13;;;7.40;;
1847;SDS011;924;52.448;13.356;2023-05-10T01:54:44;8.60;;;7.70;;
1847;SDS011;924;52.448;13.356;2023-05-10T01:57:11;8.77;;;7.97;;
1847;SDS011;924;52.448;13.356;2023-05-10T01:59:39;7.97;;;7.33;;
1847;SDS011;924;52.448;13.356;2023-05-10T02:02:08;7.93;;;7.10;;
1847;SDS011;924;52.448;13.356;2023-05-10T02:04:39;7.60;;;7.00;;
1847;SDS011;924;52.448;13.356;2023-05-10T02:07:05;9.80;;;8.37;;
1847;SDS011;924;52.448;13.356;2023-05-10T02:09:32;7.80;;;7.10;;
1847;SDS011;924;52.448;13.356;2023-05-10T02:11:58;7.93;;;7.10;;
1847;SDS011;924;52.448;13.356;2023-05-10T02:14:24;7.87;;;7.17;;
1847;SDS011;924;52.448;13.356;2023-05-10T02:16:51;8.50;;;7.70;;
1847;SDS011;924;52.448;13.356;2023-05-10T02:19:17;7.33;;;6.30;;
1847;SDS011;924;52.448;13.356;2023-05-10T02:21:43;7.93;;;7.20;;
1847;SDS011;924;52.448;13.356;2023-05-10T02:24:09;8.50;;;7.70;;
1847;SDS011;924;52.448;13.356;2023-05-10T02:26:35;8.60;;;7.27;;
1847;SDS011;924;52.448;13.356;2023-05-10T02:29:04;8.40;;;7.60;;
1847;SDS011;924;52.448;13.356;2023-05-10T02:31:30;8.00;;;7.40;;
1847;SDS011;924;52.448;13.356;2023-05-10T02:33:57;8.00;;;7.20;;
1847;SDS011;924;52.448;13.356;2023-05-10T02:36:22;6.77;;;6.17;;
1847;SDS011;924;52.448;13.356;2023-05-10T02:38:47;7.60;;;6.90;;
1847;SDS011;924;52.448;13.356;2023-05-10T02:41:14;7.13;;;6.53;;
1847;SDS011;924;52.448;13.356;2023-05-10T02:43:40;7.90;;;7.10;;
1847;SDS011;924;52.448;13.356;2023-05-10T02:46:05;9.03;;;7.67;;
1847;SDS011;924;52.448;13.356;2023-05-10T02:48:31;7.90;;;7.17;;
1847;SDS011;924;52.448;13.356;2023-05-10T02:50:57;8.30;;;7.50;;
1847;SDS011;924;52.448;13.356;2023-05-10T02:53:30;7.03;;;6.33;;
1847;SDS011;924;52.448;13.356;2023-05-10T02:55:57;7.33;;;6.63;;
1847;SDS011;924;52.448;13.356;2023-05-10T02:58:23;7.57;;;6.87;;
1847;SDS011;924;52.448;13.356;2023-05-10T03:00:49;7.33;;;6.67;;
1847;SDS011;924;52.448;13.356;2023-05-10T03:03:14;7.37;;;6.67;;
1847;SDS011;924;52.448;13.356;2023-05-10T03:05:39;7.30;;;6.63;;
1847;SDS011;924;52.448;13.356;2023-05-10T03:08:04;7.80;;;7.10;;
1847;SDS011;924;52.448;13.356;2023-05-10T03:10:31;7.53;;;6.93;;
1847;SDS011;924;52.448;13.356;2023-05-10T03:18:21;7.53;;;6.87;;
1847;SDS011;924;52.448;13.356;2023-05-10T03:20:48;7.47;;;6.73;;
1847;SDS011;924;52.448;13.356;2023-05-10T03:23:19;6.83;;;6.23;;
1847;SDS011;924;52.448;13.356;2023-05-10T03:25:46;8.43;;;7.63;;
1847;SDS011;924;52.448;13.356;2023-05-10T03:28:12;7.17;;;6.30;;
1847;SDS011;924;52.448;13.356;2023-05-10T03:30:39;8.20;;;7.07;;
1847;SDS011;924;52.448;13.356;2023-05-10T03:33:05;7.30;;;6.60;;
1847;SDS011;924;52.448;13.356;2023-05-10T03:35:34;10.93;;;7.10;;
1847;SDS011;924;52.448;13.356;2023-05-10T03:37:59;7.27;;;6.57;;
1847;SDS011;924;52.448;13.356;2023-05-10T03:40:25;7.13;;;6.40;;
1847;SDS011;924;52.448;13.356;2023-05-10T03:42:50;8.17;;;6.57;;
1847;SDS011;924;52.448;13.356;2023-05-10T03:45:16;6.77;;;6.07;;
1847;SDS011;924;52.448;13.356;2023-05-10T03:47:41;9.80;;;6.97;;
1847;SDS011;924;52.448;13.356;2023-05-10T03:50:06;6.60;;;5.97;;
1847;SDS011;924;52.448;13.356;2023-05-10T03:52:32;7.77;;;5.90;;
1847;SDS011;924;52.448;13.356;2023-05-10T03:54:57;6.77;;;6.07;;
1847;SDS011;924;52.448;13.356;2023-05-10T03:57:22;11.03;;;7.30;;
1847;SDS011;924;52.448;13.356;2023-05-10T03:59:47;6.17;;;5.67;;
1847;SDS011;924;52.448;13.356;2023-05-10T04:02:13;6.50;;;5.80;;
1847;SDS011;924;52.448;13.356;2023-05-10T04:04:38;7.70;;;7.00;;
1847;SDS011;924;52.448;13.356;2023-05-10T04:07:03;7.37;;;6.60;;
1847;SDS011;924;52.448;13.356;2023-05-10T04:09:28;6.80;;;6.10;;
1847;SDS011;924;52.448;13.356;2023-05-10T04:11:54;6.70;;;6.10;;
1847;SDS011;924;52.448;13.356;2023-05-10T04:14:19;7.43;;;6.30;;
1847;SDS011;924;52.448;13.356;2023-05-10T04:16:44;8.40;;;6.63;;
1847;SDS011;924;52.448;13.356;2023-05-10T04:19:09;6.00;;;5.40;;
1847;SDS011;924;52.448;13.356;2023-05-10T04:21:35;6.60;;;5.77;;
1847;SDS011;924;52.448;13.356;2023-05-10T04:24:01;6.20;;;5.70;;
1847;SDS011;924;52.448;13.356;2023-05-10T04:26:26;8.60;;;6.73;;
1847;SDS011;924;52.448;13.356;2023-05-10T04:28:51;7.17;;;5.77;;
1847;SDS011;924;52.448;13.356;2023-05-10T04:31:16;6.97;;;6.27;;
1847;SDS011;924;52.448;13.356;2023-05-10T04:33:42;6.53;;;5.40;;
1847;SDS011;924;52.448;13.356;2023-05-10T04:36:07;6.87;;;6.10;;
1847;SDS011;924;52.448;13.356;2023-05-10T04:38:32;5.33;;;4.83;;
1847;SDS011;924;52.448;13.356;2023-05-10T04:41:04;6.30;;;5.70;;
1847;SDS011;924;52.448;13.356;2023-05-10T04:43:30;7.37;;;5.90;;
1847;SDS011;924;52.448;13.356;2023-05-10T04:45:58;6.00;;;5.40;;
1847;SDS011;924;52.448;13.356;2023-05-10T04:48:23;6.60;;;6.10;;
1847;SDS011;924;52.448;13.356;2023-05-10T04:50:48;7.63;;;6.07;;
1847;SDS011;924;52.448;13.356;2023-05-10T04:53:14;6.50;;;5.90;;
1847;SDS011;924;52.448;13.356;2023-05-10T04:55:39;6.67;;;5.50;;
1847;SDS011;924;52.448;13.356;2023-05-10T04:58:04;6.13;;;5.53;;
1847;SDS011;924;52.448;13.356;2023-05-10T05:00:29;7.20;;;5.77;;
1847;SDS011;924;52.448;13.356;2023-05-10T05:02:55;10.13;;;6.20;;
1847;SDS011;924;52.448;13.356;2023-05-10T05:05:20;6.47;;;5.87;;
1847;SDS011;924;52.448;13.356;2023-05-10T05:07:45;6.60;;;5.47;;
1847;SDS011;924;52.448;13.356;2023-05-10T05:10:10;8.60;;;5.40;;
1847;SDS011;924;52.448;13.356;2023-05-10T05:12:36;9.67;;;5.93;;
1847;SDS011;924;52.448;13.356;2023-05-10T05:15:01;7.50;;;5.40;;
1847;SDS011;924;52.448;13.356;2023-05-10T05:17:26;6.30;;;5.50;;
1847;SDS011;924;52.448;13.356;2023-05-10T05:19:51;6.00;;;5.40;;
1847;SDS011;924;52.448;13.356;2023-05-10T05:22:17;8.50;;;5.70;;
1847;SDS011;924;52.448;13.356;2023-05-10T05:24:42;7.77;;;5.17;;
1847;SDS011;924;52.448;13.356;2023-05-10T05:27:07;7.23;;;5.60;;
1847;SDS011;924;52.448;13.356;2023-05-10T05:29:32;5.53;;;4.97;;
1847;SDS011;924;52.448;13.356;2023-05-10T05:31:58;6.47;;;5.50;;
1847;SDS011;924;52.448;13.356;2023-05-10T05:34:23;5.93;;;5.30;;
1847;SDS011;924;52.448;13.356;2023-05-10T05:36:49;6.40;;;4.60;;
1847;SDS011;924;52.448;13.356;2023-05-10T05:39:14;5.67;;;4.90;;
1847;SDS011;924;52.448;13.356;2023-05-10T05:41:39;5.47;;;5.07;;
1847;SDS011;924;52.448;13.356;2023-05-10T05:44:04;8.23;;;5.57;;
1847;SDS011;924;52.448;13.356;2023-05-10T05:46:30;5.23;;;4.63;;
1847;SDS011;924;52.448;13.356;2023-05-10T05:48:55;5.87;;;5.37;;
1847;SDS011;924;52.448;13.356;2023-05-10T05:51:20;8.23;;;4.73;;
1847;SDS011;924;52.448;13.356;2023-05-10T05:53:45;6.27;;;4.37;;
1847;SDS011;924;52.448;13.356;2023-05-10T05:56:11;9.10;;;5.20;;
1847;SDS011;924;52.448;13.356;2023-05-10T05:58:36;5.20;;;4.70;;
1847;SDS011;924;52.448;13.356;2023-05-10T06:01:01;5.73;;;5.00;;
1847;SDS011;924;52.448;13.356;2023-05-10T06:03:26;8.77;;;4.90;;
1847;SDS011;924;52.448;13.356;2023-05-10T06:05:51;6.50;;;4.63;;
1847;SDS011;924;52.448;13.356;2023-05-10T06:08:17;9.27;;;5.33;;
1847;SDS011;924;52.448;13.356;2023-05-10T06:10:42;4.97;;;4.50;;
1847;SDS011;924;52.448;13.356;2023-05-10T06:13:07;5.43;;;4.73;;
1847;SDS011;924;52.448;13.356;2023-05-10T06:15:32;6.40;;;4.80;;
1847;SDS011;924;52.448;13.356;2023-05-10T06:17:58;6.93;;;3.90;;
1847;SDS011;924;52.448;13.356;2023-05-10T06:20:23;4.70;;;4.23;;
1847;SDS011;924;52.448;13.356;2023-05-10T06:22:48;4.90;;;4.33;;
1847;SDS011;924;52.448;13.356;2023-05-10T06:25:13;5.60;;;4.50;;
1847;SDS011;924;52.448;13.356;2023-05-10T06:27:39;5.50;;;4.40;;
1847;SDS011;924;52.448;13.356;2023-05-10T06:30:05;5.50;;;3.63;;
1847;SDS011;924;52.448;13.356;2023-05-10T06:32:30;5.10;;;3.50;;
1847;SDS011;924;52.448;13.356;2023-05-10T06:34:56;6.50;;;4.83;;
1847;SDS011;924;52.448;13.356;2023-05-10T06:37:21;4.93;;;4.20;;
1847;SDS011;924;52.448;13.356;2023-05-10T06:39:46;4.70;;;3.40;;
1847;SDS011;924;52.448;13.356;2023-05-10T06:42:11;6.23;;;3.77;;
1847;SDS011;924;52.448;13.356;2023-05-10T06:44:37;4.53;;;4.13;;
1847;SDS011;924;52.448;13.356;2023-05-10T06:47:02;4.20;;;3.80;;
1847;SDS011;924;52.448;13.356;2023-05-10T06:49:27;4.13;;;3.73;;
1847;SDS011;924;52.448;13.356;2023-05-10T06:51:52;7.23;;;3.60;;
1847;SDS011;924;52.448;13.356;2023-05-10T06:54:18;4.20;;;3.77;;
1847;SDS011;924;52.448;13.356;2023-05-10T06:56:43;3.73;;;3.43;;
1847;SDS011;924;52.448;13.356;2023-05-10T06:59:08;6.80;;;3.70;;
1847;SDS011;924;52.448;13.356;2023-05-10T07:01:34;5.03;;;4.20;;
1847;SDS011;924;52.448;13.356;2023-05-10T07:03:59;3.80;;;3.40;;
1847;SDS011;924;52.448;13.356;2023-05-10T07:06:24;4.10;;;3.70;;
1847;SDS011;924;52.448;13.356;2023-05-10T07:08:49;4.63;;;3.83;;
1847;SDS011;924;52.448;13.356;2023-05-10T07:11:15;5.60;;;3.67;;
1847;SDS011;924;52.448;13.356;2023-05-10T07:13:40;5.60;;;3.60;;
1847;SDS011;924;52.448;13.356;2023-05-10T07:16:09;4.17;;;3.73;;
1847;SDS011;924;52.448;13.356;2023-05-10T07:18:34;4.63;;;3.73;;
1847;SDS011;924;52.448;13.356;2023-05-10T07:21:00;6.90;;;3.33;;
1847;SDS011;924;52.448;13.356;2023-05-10T07:23:25;3.83;;;3.53;;
1847;SDS011;924;52.448;13.356;2023-05-10T07:25:50;4.43;;;3.30;;
1847;SDS011;924;52.448;13.356;2023-05-10T07:28:19;5.93;;;4.07;;
1847;SDS011;924;52.448;13.356;2023-05-10T07:30:44;4.70;;;3.80;;
1847;SDS011;924;52.448;13.356;2023-05-10T07:33:10;3.90;;;3.50;;
1847;SDS011;924;52.448;13.356;2023-05-10T07:35:36;4.20;;;3.43;;
1847;SDS011;924;52.448;13.356;2023-05-10T07:38:01;3.53;;;3.20;;
1847;SDS011;924;52.448;13.356;2023-05-10T07:40:27;5.67;;;3.37;;
1847;SDS011;924;52.448;13.356;2023-05-10T07:42:52;4.90;;;3.77;;
1847;SDS011;924;52.448;13.356;2023-05-10T07:45:18;4.23;;;3.80;;
1847;SDS011;924;52.448;13.356;2023-05-10T07:47:43;3.60;;;3.30;;
1847;SDS011;924;52.448;13.356;2023-05-10T07:50:08;4.90;;;3.30;;
1847;SDS011;924;52.448;13.356;2023-05-10T07:52:34;3.83;;;3.53;;
1847;SDS011;924;52.448;13.356;2023-05-10T07:54:59;3.97;;;3.63;;
1847;SDS011;924;52.448;13.356;2023-05-10T07:57:24;3.73;;;3.43;;
1847;SDS011;924;52.448;13.356;2023-05-10T07:59:49;5.80;;;3.80;;
1847;SDS011;924;52.448;13.356;2023-05-10T08:02:15;4.03;;;3.63;;
1847;SDS011;924;52.448;13.356;2023-05-10T08:04:40;4.70;;;3.03;;
1847;SDS011;924;52.448;13.356;2023-05-10T08:07:05;4.63;;;3.40;;
1847;SDS011;924;52.448;13.356;2023-05-10T08:09:30;4.10;;;3.70;;
1847;SDS011;924;52.448;13.356;2023-05-10T08:11:56;4.50;;;3.87;;
1847;SDS011;924;52.448;13.356;2023-05-10T08:14:21;5.20;;;3.90;;
1847;SDS011;924;52.448;13.356;2023-05-10T08:16:46;3.63;;;3.33;;
1847;SDS011;924;52.448;13.356;2023-05-10T08:19:12;4.40;;;3.63;;
1847;SDS011;924;52.448;13.356;2023-05-10T08:21:37;4.63;;;3.53;;
1847;SDS011;924;52.448;13.356;2023-05-10T08:24:02;4.80;;;3.60;;
1847;SDS011;924;52.448;13.356;2023-05-10T08:26:27;4.17;;;3.40;;
1847;SDS011;924;52.448;13.356;2023-05-10T08:28:53;5.50;;;3.83;;
1847;SDS011;924;52.448;13.356;2023-05-10T08:31:18;5.10;;;3.27;;
1847;SDS011;924;52.448;13.356;2023-05-10T08:33:43;5.10;;;3.90;;
1847;SDS011;924;52.448;13.356;2023-05-10T08:36:08;5.63;;;3.60;;
1847;SDS011;924;52.448;13.356;2023-05-10T08:38:34;3.80;;;3.37;;
1847;SDS011;924;52.448;13.356;2023-05-10T08:40:59;4.17;;;3.87;;
1847;SDS011;924;52.448;13.356;2023-05-10T08:43:27;4.67;;;3.83;;
1847;SDS011;924;52.448;13.356;2023-05-10T08:45:54;5.60;;;3.23;;
1847;SDS011;924;52.448;13.356;2023-05-10T08:48:19;3.63;;;3.33;;
1847;SDS011;924;52.448;13.356;2023-05-10T08:50:46;6.20;;;4.53;;
1847;SDS011;924;52.448;13.356;2023-05-10T08:53:13;4.27;;;3.80;;
1847;SDS011;924;52.448;13.356;2023-05-10T08:55:40;3.97;;;3.57;;
1847;SDS011;924;52.448;13.356;2023-05-10T08:58:07;5.10;;;3.90;;
1847;SDS011;924;52.448;13.356;2023-05-10T09:00:33;5.00;;;3.73;;
1847;SDS011;924;52.448;13.356;2023-05-10T09:02:58;4.30;;;3.30;;
1847;SDS011;924;52.448;13.356;2023-05-10T09:05:24;5.20;;;3.40;;
1847;SDS011;924;52.448;13.356;2023-05-10T09:07:49;4.80;;;4.30;;
1847;SDS011;924;52.448;13.356;2023-05-10T09:10:14;3.93;;;3.63;;
1847;SDS011;924;52.448;13.356;2023-05-10T09:12:40;4.00;;;3.60;;
1847;SDS011;924;52.448;13.356;2023-05-10T09:15:05;4.60;;;4.17;;
1847;SDS011;924;52.448;13.356;2023-05-10T09:17:31;4.80;;;3.90;;
1847;SDS011;924;52.448;13.356;2023-05-10T09:20:00;5.00;;;4.30;;
1847;SDS011;924;52.448;13.356;2023-05-10T09:22:26;3.67;;;3.37;;
1847;SDS011;924;52.448;13.356;2023-05-10T09:27:52;9.43;;;6.73;;
1847;SDS011;924;52.448;13.356;2023-05-10T09:30:22;4.37;;;3.40;;
1847;SDS011;924;52.448;13.356;2023-05-10T09:32:48;3.93;;;3.53;;
1847;SDS011;924;52.448;13.356;2023-05-10T09:35:15;3.90;;;3.60;;
1847;SDS011;924;52.448;13.356;2023-05-10T09:37:42;7.53;;;3.70;;
1847;SDS011;924;52.448;13.356;2023-05-10T09:40:08;3.90;;;3.30;;
1847;SDS011;924;52.448;13.356;2023-05-10T09:42:35;3.80;;;3.23;;
1847;SDS011;924;52.448;13.356;2023-05-10T09:45:02;4.40;;;4.00;;
1847;SDS011;924;52.448;13.356;2023-05-10T09:47:27;4.03;;;3.73;;
1847;SDS011;924;52.448;13.356;2023-05-10T09:49:53;5.60;;;3.70;;
1847;SDS011;924;52.448;13.356;2023-05-10T09:52:20;9.10;;;3.93;;
1847;SDS011;924;52.448;13.356;2023-05-10T09:54:52;3.67;;;3.37;;
1847;SDS011;924;52.448;13.356;2023-05-10T09:57:21;5.13;;;3.73;;
1847;SDS011;924;52.448;13.356;2023-05-10T09:59:47;4.27;;;3.70;;
1847;SDS011;924;52.448;13.356;2023-05-10T10:02:12;4.63;;;3.13;;
1847;SDS011;924;52.448;13.356;2023-05-10T10:04:40;3.80;;;3.50;;
1847;SDS011;924;52.448;13.356;2023-05-10T10:07:06;4.00;;;3.67;;
1847;SDS011;924;52.448;13.356;2023-05-10T10:09:32;5.13;;;3.40;;
1847;SDS011;924;52.448;13.356;2023-05-10T10:11:59;6.17;;;4.07;;
1847;SDS011;924;52.448;13.356;2023-05-10T10:14:24;4.10;;;3.70;;
1847;SDS011;924;52.448;13.356;2023-05-10T10:16:50;3.87;;;3.57;;
1847;SDS011;924;52.448;13.356;2023-05-10T10:19:19;4.80;;;3.80;;
1847;SDS011;924;52.448;13.356;2023-05-10T10:21:45;7.10;;;4.40;;
1847;SDS011;924;52.448;13.356;2023-05-10T10:24:10;4.93;;;3.50;;
1847;SDS011;924;52.448;13.356;2023-05-10T10:26:36;4.90;;;3.60;;
1847;SDS011;924;52.448;13.356;2023-05-10T10:29:21;3.70;;;3.40;;
1847;SDS011;924;52.448;13.356;2023-05-10T10:32:06;4.10;;;3.70;;
1847;SDS011;924;52.448;13.356;2023-05-10T10:34:34;4.47;;;3.47;;
1847;SDS011;924;52.448;13.356;2023-05-10T10:37:03;4.23;;;3.83;;
1847;SDS011;924;52.448;13.356;2023-05-10T10:39:29;5.73;;;4.40;;
1847;SDS011;924;52.448;13.356;2023-05-10T10:41:56;3.40;;;3.10;;
1847;SDS011;924;52.448;13.356;2023-05-10T10:49:27;5.10;;;4.20;;
1847;SDS011;924;52.448;13.356;2023-05-10T10:54:37;5.73;;;3.50;;
1847;SDS011;924;52.448;13.356;2023-05-10T10:57:20;4.33;;;3.40;;
1847;SDS011;924;52.448;13.356;2023-05-10T10:59:46;4.10;;;3.70;;
1847;SDS011;924;52.448;13.356;2023-05-10T11:02:45;5.77;;;3.90;;
1847;SDS011;924;52.448;13.356;2023-05-10T11:05:49;4.70;;;4.00;;
1847;SDS011;924;52.448;13.356;2023-05-10T11:07:56;5.53;;;3.50;;
1847;SDS011;924;52.448;13.356;2023-05-10T11:10:22;3.57;;;3.27;;
1847;SDS011;924;52.448;13.356;2023-05-10T11:13:06;3.80;;;3.50;;
1847;SDS011;924;52.448;13.356;2023-05-10T11:15:33;10.33;;;4.67;;
1847;SDS011;924;52.448;13.356;2023-05-10T11:17:59;3.90;;;3.17;;
1847;SDS011;924;52.448;13.356;2023-05-10T11:20:27;4.03;;;3.57;;
1847;SDS011;924;52.448;13.356;2023-05-10T11:22:58;5.73;;;3.70;;
1847;SDS011;924;52.448;13.356;2023-05-10T11:25:26;5.20;;;3.97;;
1847;SDS011;924;52.448;13.356;2023-05-10T11:27:51;4.20;;;3.00;;
1847;SDS011;924;52.448;13.356;2023-05-10T11:30:16;3.33;;;3.00;;
1847;SDS011;924;52.448;13.356;2023-05-10T11:32:42;6.60;;;3.50;;
1847;SDS011;924;52.448;13.356;2023-05-10T11:35:08;5.27;;;3.53;;
1847;SDS011;924;52.448;13.356;2023-05-10T11:37:33;4.00;;;3.27;;
1847;SDS011;924;52.448;13.356;2023-05-10T11:39:59;3.53;;;3.23;;
1847;SDS011;924;52.448;13.356;2023-05-10T11:42:24;4.20;;;3.80;;
1847;SDS011;924;52.448;13.356;2023-05-10T11:44:49;7.30;;;3.83;;
1847;SDS011;924;52.448;13.356;2023-05-10T11:47:15;3.53;;;3.23;;
1847;SDS011;924;52.448;13.356;2023-05-10T11:49:43;4.87;;;3.10;;
1847;SDS011;924;52.448;13.356;2023-05-10T11:52:08;5.37;;;3.50;;
1847;SDS011;924;52.448;13.356;2023-05-10T11:54:33;5.03;;;3.83;;
1847;SDS011;924;52.448;13.356;2023-05-10T11:57:02;4.50;;;3.27;;
1847;SDS011;924;52.448;13.356;2023-05-10T11:59:27;3.90;;;3.50;;
1847;SDS011;924;52.448;13.356;2023-05-10T12:01:53;5.57;;;4.47;;
1847;SDS011;924;52.448;13.356;2023-05-10T12:04:18;3.87;;;3.57;;
1847;SDS011;924;52.448;13.356;2023-05-10T12:06:43;3.47;;;3.27;;
1847;SDS011;924;52.448;13.356;2023-05-10T12:09:09;3.73;;;3.20;;
1847;SDS011;924;52.448;13.356;2023-05-10T12:11:39;5.60;;;3.97;;
1847;SDS011;924;52.448;13.356;2023-05-10T12:14:05;4.30;;;3.60;;
1847;SDS011;924;52.448;13.356;2023-05-10T12:16:30;6.40;;;3.57;;
1847;SDS011;924;52.448;13.356;2023-05-10T12:18:57;3.87;;;3.57;;
1847;SDS011;924;52.448;13.356;2023-05-10T12:21:23;6.87;;;3.50;;
1847;SDS011;924;52.448;13.356;2023-05-10T12:23:49;3.53;;;3.23;;
1847;SDS011;924;52.448;13.356;2023-05-10T12:26:15;5.70;;;4.03;;
1847;SDS011;924;52.448;13.356;2023-05-10T12:28:40;4.50;;;3.23;;
1847;SDS011;924;52.448;13.356;2023-05-10T12:31:05;5.67;;;3.23;;
1847;SDS011;924;52.448;13.356;2023-05-10T12:33:38;5.80;;;3.50;;
1847;SDS011;924;52.448;13.356;2023-05-10T12:36:04;4.07;;;3.67;;
1847;SDS011;924;52.448;13.356;2023-05-10T12:40:56;3.70;;;3.40;;
1847;SDS011;924;52.448;13.356;2023-05-10T12:43:21;3.53;;;3.23;;
1847;SDS011;924;52.448;13.356;2023-05-10T12:45:47;4.57;;;4.17;;
1847;SDS011;924;52.448;13.356;2023-05-10T12:48:14;5.40;;;3.40;;
1847;SDS011;924;52.448;13.356;2023-05-10T12:50:39;14.97;;;4.77;;
1847;SDS011;924;52.448;13.356;2023-05-10T12:53:04;43.80;;;11.53;;
1847;SDS011;924;52.448;13.356;2023-05-10T12:55:29;4.60;;;3.80;;
1847;SDS011;924;52.448;13.356;2023-05-10T12:57:55;6.23;;;3.13;;
1847;SDS011;924;52.448;13.356;2023-05-10T13:00:20;4.90;;;3.57;;
1847;SDS011;924;52.448;13.356;2023-05-10T13:02:45;6.00;;;4.57;;
1847;SDS011;924;52.448;13.356;2023-05-10T13:05:11;4.43;;;3.70;;
1847;SDS011;924;52.448;13.356;2023-05-10T13:07:38;6.47;;;3.50;;
1847;SDS011;924;52.448;13.356;2023-05-10T13:10:03;4.40;;;3.67;;
1847;SDS011;924;52.448;13.356;2023-05-10T13:12:28;4.33;;;3.93;;
1847;SDS011;924;52.448;13.356;2023-05-10T13:14:54;4.17;;;3.47;;
1847;SDS011;924;52.448;13.356;2023-05-10T13:17:19;5.17;;;3.43;;
1847;SDS011;924;52.448;13.356;2023-05-10T13:19:44;4.13;;;3.27;;
1847;SDS011;924;52.448;13.356;2023-05-10T13:22:10;3.87;;;3.57;;
1847;SDS011;924;52.448;13.356;2023-05-10T13:24:35;6.30;;;4.37;;
1847;SDS011;924;52.448;13.356;2023-05-10T13:27:00;7.83;;;4.03;;
1847;SDS011;924;52.448;13.356;2023-05-10T13:29:25;6.57;;;4.07;;
1847;SDS011;924;52.448;13.356;2023-05-10T13:31:51;5.23;;;3.90;;
1847;SDS011;924;52.448;13.356;2023-05-10T13:34:16;4.30;;;3.80;;
1847;SDS011;924;52.448;13.356;2023-05-10T13:36:41;4.40;;;4.00;;
1847;SDS011;924;52.448;13.356;2023-05-10T13:39:07;4.80;;;3.40;;
1847;SDS011;924;52.448;13.356;2023-05-10T13:41:32;4.73;;;3.83;;
1847;SDS011;924;52.448;13.356;2023-05-10T13:43:58;3.57;;;3.27;;
1847;SDS011;924;52.448;13.356;2023-05-10T13:46:23;14.63;;;4.80;;
1847;SDS011;924;52.448;13.356;2023-05-10T13:48:48;4.30;;;3.90;;
1847;SDS011;924;52.448;13.356;2023-05-10T13:51:13;4.67;;;3.60;;
1847;SDS011;924;52.448;13.356;2023-05-10T13:53:38;4.57;;;2.73;;
1847;SDS011;924;52.448;13.356;2023-05-10T13:56:04;3.47;;;3.17;;
1847;SDS011;924;52.448;13.356;2023-05-10T13:58:29;4.40;;;3.90;;
1847;SDS011;924;52.448;13.356;2023-05-10T14:00:55;3.50;;;3.20;;
1847;SDS011;924;52.448;13.356;2023-05-10T14:03:20;5.90;;;4.70;;
1847;SDS011;924;52.448;13.356;2023-05-10T14:05:45;6.50;;;4.77;;
1847;SDS011;924;52.448;13.356;2023-05-10T14:08:12;4.40;;;3.10;;
1847;SDS011;924;52.448;13.356;2023-05-10T14:10:38;5.60;;;3.67;;
1847;SDS011;924;52.448;13.356;2023-05-10T14:13:03;5.90;;;3.67;;
1847;SDS011;924;52.448;13.356;2023-05-10T14:15:28;5.20;;;3.57;;
1847;SDS011;924;52.448;13.356;2023-05-10T14:17:53;5.90;;;3.40;;
1847;SDS011;924;52.448;13.356;2023-05-10T14:20:19;5.37;;;3.40;;
1847;SDS011;924;52.448;13.356;2023-05-10T14:22:44;4.17;;;3.77;;
1847;SDS011;924;52.448;13.356;2023-05-10T14:25:09;4.10;;;3.70;;
1847;SDS011;924;52.448;13.356;2023-05-10T14:27:34;4.57;;;3.50;;
1847;SDS011;924;52.448;13.356;2023-05-10T14:29:59;7.17;;;3.80;;
1847;SDS011;924;52.448;13.356;2023-05-10T14:32:25;4.57;;;3.80;;
1847;SDS011;924;52.448;13.356;2023-05-10T14:34:51;5.43;;;4.93;;
1847;SDS011;924;52.448;13.356;2023-05-10T14:37:17;3.70;;;3.40;;
1847;SDS011;924;52.448;13.356;2023-05-10T14:39:42;4.57;;;3.90;;
1847;SDS011;924;52.448;13.356;2023-05-10T14:42:07;4.53;;;3.73;;
1847;SDS011;924;52.448;13.356;2023-05-10T14:44:33;5.13;;;3.70;;
1847;SDS011;924;52.448;13.356;2023-05-10T14:46:58;4.07;;;3.67;;
1847;SDS011;924;52.448;13.356;2023-05-10T14:49:23;7.17;;;3.90;;
1847;SDS011;924;52.448;13.356;2023-05-10T14:51:50;4.37;;;3.97;;
1847;SDS011;924;52.448;13.356;2023-05-10T14:54:16;3.43;;;3.13;;
1847;SDS011;924;52.448;13.356;2023-05-10T14:56:41;6.20;;;3.23;;
1847;SDS011;924;52.448;13.356;2023-05-10T14:59:07;4.07;;;3.67;;
1847;SDS011;924;52.448;13.356;2023-05-10T15:01:32;3.70;;;3.20;;
1847;SDS011;924;52.448;13.356;2023-05-10T15:03:57;5.93;;;3.37;;
1847;SDS011;924;52.448;13.356;2023-05-10T15:06:23;5.73;;;4.40;;
1847;SDS011;924;52.448;13.356;2023-05-10T15:08:49;5.70;;;3.73;;
1847;SDS011;924;52.448;13.356;2023-05-10T15:11:15;3.77;;;3.47;;
1847;SDS011;924;52.448;13.356;2023-05-10T15:13:40;4.13;;;3.23;;
1847;SDS011;924;52.448;13.356;2023-05-10T15:16:05;5.90;;;3.10;;
1847;SDS011;924;52.448;13.356;2023-05-10T15:18:31;4.07;;;3.77;;
1847;SDS011;924;52.448;13.356;2023-05-10T15:20:56;3.97;;;3.67;;
1847;SDS011;924;52.448;13.356;2023-05-10T15:23:22;3.87;;;3.47;;
1847;SDS011;924;52.448;13.356;2023-05-10T15:25:48;3.80;;;3.40;;
1847;SDS011;924;52.448;13.356;2023-05-10T15:28:14;3.47;;;3.17;;
1847;SDS011;924;52.448;13.356;2023-05-10T15:30:39;3.33;;;3.13;;
1847;SDS011;924;52.448;13.356;2023-05-10T15:33:05;4.93;;;3.80;;
1847;SDS011;924;52.448;13.356;2023-05-10T15:35:30;27.57;;;6.87;;
1847;SDS011;924;52.448;13.356;2023-05-10T15:37:55;5.03;;;3.93;;